METAR Data
IDs: Format: Raw Decoded Include TAF

Data at: 1708 UTC 03 Dec 2021

KDKB 031655Z AUTO 12011KT 10SM SCT120 09/M01 A3002 RMK AO2 T00861014
KDKB 031635Z AUTO 12008KT 10SM SCT120 08/M01 A3003 RMK AO2 T00841007
KDKB 031615Z AUTO 10009KT 10SM CLR 08/01 A3003 RMK AO2 T00810007
KDKB 031555Z AUTO 12010KT 10SM CLR 07/01 A3003 RMK AO2 T00730011
KDKB 031535Z AUTO 09008KT 10SM SCT120 07/02 A3003 RMK AO2 T00710016
KDKB 031515Z AUTO 10009KT 10SM BKN120 07/02 A3003 RMK AO2 T00660022
KDKB 031455Z AUTO 08007KT 10SM SCT120 06/02 A3004 RMK AO2 T00620019
KDKB 031435Z AUTO 06007KT 10SM CLR 06/02 A3006 RMK AO2 T00560016
KDKB 031415Z AUTO 09007KT 10SM SCT110 05/01 A3004 RMK AO2 T00510005
KDKB 031355Z AUTO 07007KT 10SM SCT120 05/00 A3004 RMK AO2 T00450000
KDKB 031335Z AUTO 08007KT 10SM CLR 04/00 A3003 RMK AO2 T00401005
KDKB 031315Z AUTO 10007KT 10SM SCT120 04/M01 A3001 RMK AO2 T00391008
KDKB 031255Z AUTO 07006KT 10SM SCT120 04/M01 A3003 RMK AO2 T00351012
KDKB 031235Z AUTO 08006KT 10SM SCT120 03/M02 A3002 RMK AO2 T00341016
KDKB 031215Z AUTO 10007KT 10SM SCT065 SCT120 03/M02 A3001 RMK AO2 T00331017
KDKB 031155Z AUTO 10006KT 10SM SCT065 SCT120 03/M02 A3002 RMK AO2 T00331018 10048 20028
KDKB 031135Z AUTO 10007KT 10SM SCT065 SCT100 03/M02 A3002 RMK AO2 T00301021
KDKB 031115Z AUTO 11005KT 10SM BKN100 04/M02 A3001 RMK AO2 T00371021
KDKB 031055Z AUTO 10007KT 10SM OVC100 04/M02 A3001 RMK AO2 T00411022
KDKB 031035Z AUTO 08007KT 10SM BKN100 BKN120 04/M02 A3002 RMK AO2 T00371023
KDKB 031015Z AUTO 07007KT 10SM OVC100 04/M02 A3002 RMK AO2 T00401020
KDKB 030955Z AUTO 08006KT 10SM OVC100 04/M02 A3001 RMK AO2 T00421019
KDKB 030935Z AUTO 08005KT 10SM OVC100 05/M02 A3003 RMK AO2 T00451018
KDKB 030915Z AUTO 04006KT 10SM SCT075 OVC100 03/M01 A3004 RMK AO2 T00311006
KDKB 030855Z AUTO 06005KT 10SM BKN085 OVC110 03/M01 A3004 RMK AO2 T00291007
KDKB 030835Z AUTO 10003KT 10SM BKN085 OVC100 04/M02 A3005 RMK AO2 T00441024
KDKB 030815Z AUTO 10003KT 10SM OVC085 04/M02 A3005 RMK AO2 T00411020
KDKB 030755Z AUTO 00000KT 10SM OVC085 04/M01 A3005 RMK AO2 T00421013
KDKB 030735Z AUTO 06003KT 10SM SCT090 OVC110 05/M02 A3005 RMK AO2 T00461019
KDKB 030715Z AUTO 10003KT 10SM BKN090 OVC110 05/M02 A3004 RMK AO2 T00471016
KDKB 030655Z AUTO 00000KT 10SM OVC090 05/M02 A3004 RMK AO2 T00481017
KDKB 030635Z AUTO 06004KT 10SM OVC090 04/M01 A3004 RMK AO2 T00411006
KDKB 030615Z AUTO 03005KT 10SM OVC090 04/00 A3004 RMK AO2 T00401003
KDKB 030555Z AUTO 04005KT 10SM OVC090 04/00 A3002 RMK AO2 T00411005 10061 20028 401270028
KDKB 030535Z AUTO 05004KT 10SM OVC090 04/00 A3002 RMK AO2 T00401004
KDKB 030515Z AUTO 03003KT 10SM UP SCT065 OVC080 04/00 A3002 RMK AO2 T00431005
KDKB 030455Z AUTO 02003KT 10SM BKN080 OVC090 05/M01 A3003 RMK AO2 T00491014
KDKB 030435Z AUTO 34005KT 10SM OVC090 06/M02 A3003 RMK AO2 T00571020
KDKB 030415Z AUTO 32004KT 10SM OVC090 06/M02 A3003 RMK AO2 T00591022
KDKB 030355Z AUTO 31003KT 10SM OVC100 05/M02 A3002 RMK AO2 T00521019
KDKB 030335Z AUTO 29003KT 10SM OVC100 05/M02 A3000 RMK AO2 T00531019
KDKB 030315Z AUTO 30004KT 10SM OVC100 06/M02 A3001 RMK AO2 T00551020
KDKB 030255Z AUTO 31003KT 10SM BKN100 BKN120 06/M02 A3001 RMK AO2 T00581023
KDKB 030235Z AUTO 28005KT 10SM BKN120 05/M02 A3001 RMK AO2 T00531024
KDKB 030215Z AUTO 28003KT 10SM SCT120 04/M03 A3001 RMK AO2 T00351027
KDKB 030155Z AUTO 30006KT 10SM SCT120 03/M03 A3001 RMK AO2 T00281035
KDKB 030135Z AUTO 31005KT 10SM BKN120 04/M03 A3002 RMK AO2 T00391033
KDKB 030115Z AUTO 29004KT 10SM SCT120 04/M03 A3001 RMK AO2 T00351032
KDKB 030055Z AUTO 31005KT 10SM CLR 05/M03 A3001 RMK AO2 T00461031
KDKB 030035Z AUTO 32006KT 10SM CLR 06/M03 A3000 RMK AO2 T00551030
KDKB 030015Z AUTO 30005KT 10SM CLR 05/M04 A2999 RMK AO2 T00461036
KDKB 022355Z AUTO 29007KT 10SM CLR 06/M03 A2999 RMK AO2 T00591033 10123 20059
KDKB 022335Z AUTO 28008KT 10SM CLR 07/M03 A2999 RMK AO2 T00671032
KDKB 022315Z AUTO 28010KT 10SM CLR 07/M03 A2998 RMK AO2 T00741030
KDKB 022255Z AUTO 28009KT 10SM CLR 07/M03 A2996 RMK AO2 T00721030
KDKB 022235Z AUTO 28008KT 10SM CLR 08/M03 A2996 RMK AO2 T00771032
KDKB 022215Z AUTO 29008KT 10SM CLR 09/M04 A2995 RMK AO2 T00901036
KDKB 022155Z AUTO 28009KT 10SM CLR 10/M03 A2994 RMK AO2 T00971032
KDKB 022135Z AUTO 31009KT 10SM CLR 11/M03 A2993 RMK AO2 T01051033
KDKB 022115Z AUTO 31011G15KT 10SM CLR 11/M03 A2991 RMK AO2 T01111033
KDKB 022055Z AUTO 30012KT 10SM CLR 11/M03 A2989 RMK AO2 T01131034
KDKB 022035Z AUTO 30014KT 10SM CLR 12/M03 A2989 RMK AO2 T01151030
KDKB 022015Z AUTO 30014G20KT 10SM CLR 12/M02 A2988 RMK AO2 T01171025
KDKB 021955Z AUTO 31013G19KT 10SM CLR 12/M02 A2988 RMK AO2 T01181025
KDKB 021935Z AUTO 31015G21KT 10SM CLR 12/M03 A2987 RMK AO2 T01191026
KDKB 021915Z AUTO 30014G19KT 10SM CLR 12/M02 A2987 RMK AO2 T01211019
KDKB 021855Z AUTO 31016G23KT 10SM CLR 12/M02 A2986 RMK AO2 T01201019
KDKB 021835Z AUTO 30020G25KT 10SM CLR 12/M02 A2985 RMK AO2 T01201020
KDKB 021815Z AUTO 30018G25KT 10SM CLR 12/M01 A2984 RMK AO2 T01171015
KDKB 021755Z AUTO 29019G28KT 10SM CLR 12/00 A2984 RMK AO2 T01231005 10127 20086
KDKB 021735Z AUTO 31018G25KT 10SM CLR 13/M01 A2983 RMK AO2 T01261007
KDKB 021715Z AUTO 30020G27KT 10SM CLR 12/M01 A2983 RMK AO2 T01201015
KDKB 021655Z AUTO 30021G26KT 10SM CLR 13/00 A2982 RMK AO2 T01260003
KDKB 021635Z AUTO 30021G31KT 10SM CLR 13/00 A2982 RMK AO2 T01250002
KDKB 021615Z AUTO 29015G28KT 10SM CLR 12/02 A2980 RMK AO2 T01220022
KDKB 021555Z AUTO 29015G21KT 10SM CLR 12/04 A2980 RMK AO2 T01210037
KDKB 021535Z AUTO 27018G21KT 10SM CLR 12/04 A2979 RMK AO2 T01150044
KDKB 021515Z AUTO 28016G21KT 10SM CLR 11/04 A2979 RMK AO2 T01110044
KDKB 021455Z AUTO 28015G19KT 10SM CLR 11/05 A2978 RMK AO2 T01080046
KDKB 021435Z AUTO 27016G20KT 10SM CLR 10/05 A2977 RMK AO2 T01030045
KDKB 021415Z AUTO 28014KT 10SM CLR 10/04 A2977 RMK AO2 T00960042
KDKB 021355Z AUTO 28013KT 10SM CLR 09/04 A2976 RMK AO2 T00910038
KDKB 021335Z AUTO 27014G18KT 10SM CLR 09/04 A2975 RMK AO2 T00900037
KDKB 021315Z AUTO 26011KT 10SM CLR 09/04 A2974 RMK AO2 T00860035
KDKB 021255Z AUTO 26013G20KT 10SM SCT095 BKN120 09/03 A2972 RMK AO2 T00900034
KDKB 021235Z AUTO 26012G16KT 10SM BKN100 OVC120 09/03 A2972 RMK AO2 T00900032
KDKB 021215Z AUTO 26009KT 10SM OVC100 09/03 A2970 RMK AO2 T00900034
KDKB 021155Z AUTO 26010KT 10SM OVC100 09/04 A2969 RMK AO2 T00890035 10095 20073
KDKB 021135Z AUTO 25009KT 10SM -DZ SCT075 OVC110 09/04 A2969 RMK AO2 T00860036
KDKB 021110Z AUTO 26010KT 10SM BKN110 09/04 A2969 RMK AO2 T00900036
KDKB 021055Z AUTO 26008KT 10SM SCT090 BKN110 09/03 A2968 RMK AO2 T00900032
KDKB 021035Z AUTO 26010G16KT 10SM BKN110 09/03 A2969 RMK AO2 T00860026
KDKB 021015Z AUTO 25013G17KT 10SM OVC110 09/02 A2969 RMK AO2 T00860023
KDKB 020950Z AUTO 26015G21KT 10SM BKN110 09/02 A2967 RMK AO2 T00870022
KDKB 020935Z AUTO 25015G19KT 10SM SCT120 09/02 A2967 RMK AO2 T00870021
KDKB 020915Z AUTO 26016G24KT 10SM CLR 09/02 A2968 RMK AO2 T00910021
KDKB 020855Z AUTO 25017G23KT 10SM CLR 09/02 A2968 RMK AO2 T00900021
KDKB 020835Z AUTO 25016G22KT 10SM CLR 09/02 A2968 RMK AO2 T00920021
KDKB 020815Z AUTO 25015G23KT 10SM CLR 09/02 A2968 RMK AO2 T00900021
KDKB 020755Z AUTO 25014G21KT 10SM CLR 09/02 A2967 RMK AO2 T00910020
KDKB 020735Z AUTO 25017G23KT 10SM CLR 10/02 A2967 RMK AO2 T00950021
KDKB 020715Z AUTO 24016KT 10SM CLR 09/02 A2967 RMK AO2 T00920020
KDKB 020655Z AUTO 24015KT 10SM CLR 09/02 A2968 RMK AO2 T00900021
KDKB 020635Z AUTO 23010G16KT 10SM CLR 08/02 A2968 RMK AO2 T00770022
KDKB 020615Z AUTO 23013KT 10SM CLR 08/03 A2969 RMK AO2 T00750025
KDKB 020555Z AUTO 23015KT 10SM CLR 07/03 A2969 RMK AO2 T00720025 10079 20042 400880010
KDKB 020535Z AUTO 22010KT 10SM CLR 06/03 A2970 RMK AO2 T00580025
KDKB 020515Z AUTO 22010KT 10SM CLR 06/03 A2970 RMK AO2 T00590026